createdAt,value
2022-10-29T00:03:41.580Z,5.98
2022-10-29T00:08:48.637Z,4.52
2022-10-29T00:13:55.668Z,3.29
2022-10-29T00:19:03.060Z,3.38
2022-10-29T00:24:10.003Z,3.35
2022-10-29T00:29:16.997Z,3.95
2022-10-29T00:34:23.874Z,3.90
2022-10-29T00:39:30.914Z,4.13
2022-10-29T00:44:37.815Z,3.50
2022-10-29T00:49:44.840Z,4.19
2022-10-29T00:54:51.738Z,4.26
2022-10-29T00:59:58.724Z,4.37
2022-10-29T01:05:05.702Z,4.46
2022-10-29T01:10:12.605Z,3.37
2022-10-29T01:15:19.736Z,2.79
2022-10-29T01:20:26.622Z,2.26
2022-10-29T01:25:33.550Z,1.78
2022-10-29T01:30:40.515Z,1.56
2022-10-29T01:35:47.406Z,0.94
2022-10-29T01:40:54.408Z,1.12
2022-10-29T01:46:01.381Z,1.01
2022-10-29T01:51:08.380Z,0.77
2022-10-29T01:56:15.335Z,0.90
2022-10-29T02:01:22.421Z,0.98
2022-10-29T02:06:29.206Z,0.90
2022-10-29T02:11:36.128Z,0.94
2022-10-29T02:16:43.091Z,1.04
2022-10-29T02:21:50.166Z,1.29
2022-10-29T02:26:57.205Z,2.00
2022-10-29T02:32:04.238Z,2.49
2022-10-29T02:37:11.115Z,2.45
2022-10-29T02:42:18.056Z,2.18
2022-10-29T02:47:24.972Z,2.06
2022-10-29T02:52:31.943Z,1.57
2022-10-29T02:57:38.949Z,1.40
2022-10-29T03:02:45.999Z,1.37
2022-10-29T03:07:52.836Z,0.99
2022-10-29T03:12:59.795Z,1.00
2022-10-29T03:18:06.706Z,1.14
2022-10-29T03:23:13.668Z,0.91
2022-10-29T03:28:20.648Z,0.95
2022-10-29T03:33:27.615Z,0.89
2022-10-29T03:38:34.531Z,0.85
2022-10-29T03:43:41.601Z,0.94
2022-10-29T03:48:48.482Z,0.81
2022-10-29T03:53:55.692Z,0.80
2022-10-29T03:59:02.838Z,0.83
2022-10-29T04:04:09.859Z,0.80
2022-10-29T04:09:16.783Z,0.87
2022-10-29T04:14:23.842Z,0.90
2022-10-29T04:19:30.764Z,0.88
2022-10-29T04:29:44.425Z,0.90
2022-10-29T04:34:51.433Z,0.98
2022-10-29T04:39:58.363Z,1.12
2022-10-29T04:45:05.385Z,0.94
2022-10-29T04:50:12.317Z,0.94
2022-10-29T04:55:19.409Z,0.98
2022-10-29T05:00:26.286Z,0.71
2022-10-29T05:05:33.322Z,0.96
2022-10-29T05:10:40.221Z,1.00
2022-10-29T05:15:52.734Z,0.97
2022-10-29T05:20:53.723Z,0.83
2022-10-29T05:26:00.786Z,0.85
2022-10-29T05:31:07.721Z,0.69
2022-10-29T05:36:14.642Z,0.92
2022-10-29T05:41:21.561Z,0.83
2022-10-29T05:46:28.533Z,0.82
2022-10-29T05:51:35.441Z,0.61
2022-10-29T05:56:42.500Z,0.96
2022-10-29T06:01:49.569Z,0.79
2022-10-29T06:06:56.439Z,0.73
2022-10-29T06:12:03.287Z,0.97
2022-10-29T06:17:10.237Z,1.12
2022-10-29T06:22:17.167Z,0.76
2022-10-29T06:27:24.303Z,1.05
2022-10-29T06:32:31.327Z,1.02
2022-10-29T06:37:38.277Z,1.01
2022-10-29T06:42:45.227Z,0.97
2022-10-29T06:47:52.252Z,0.87
2022-10-29T06:52:59.640Z,1.70
2022-10-29T06:58:05.751Z,0.92
2022-10-29T07:03:12.669Z,0.98
2022-10-29T07:08:19.681Z,0.90
2022-10-29T07:13:26.583Z,1.00
2022-10-29T07:18:33.618Z,1.02
2022-10-29T07:23:40.524Z,1.04
2022-10-29T07:28:47.649Z,1.01
2022-10-29T07:33:54.580Z,1.13
2022-10-29T07:39:01.611Z,1.21
2022-10-29T07:44:08.543Z,0.90
2022-10-29T07:49:15.576Z,1.11
2022-10-29T07:54:22.920Z,1.28
2022-10-29T07:59:30.015Z,1.07
2022-10-29T08:04:36.911Z,1.12
2022-10-29T08:09:43.992Z,1.04
2022-10-29T08:14:50.915Z,1.39
2022-10-29T08:19:59.349Z,1.19
2022-10-29T08:25:06.246Z,1.20
2022-10-29T08:30:13.307Z,1.21
2022-10-29T08:35:20.215Z,1.70
2022-10-29T08:40:27.339Z,1.72
2022-10-29T08:45:34.298Z,1.21
2022-10-29T08:50:41.389Z,1.44
2022-10-29T08:55:48.315Z,1.35
2022-10-29T09:00:55.358Z,1.47
2022-10-29T09:06:02.222Z,1.71
2022-10-29T09:11:09.276Z,1.41
2022-10-29T09:16:16.240Z,1.36
2022-10-29T09:21:23.244Z,1.64
2022-10-29T09:26:30.184Z,1.55
2022-10-29T09:31:37.275Z,1.86
2022-10-29T09:36:44.208Z,1.34
2022-10-29T09:41:51.287Z,1.35
2022-10-29T09:46:58.229Z,1.37
2022-10-29T09:52:05.252Z,1.53
2022-10-29T09:57:12.173Z,1.71
2022-10-29T10:02:19.700Z,1.39
2022-10-29T10:07:26.517Z,1.45
2022-10-29T10:12:33.572Z,1.49
2022-10-29T10:17:41.484Z,1.58
2022-10-29T10:22:48.404Z,1.79
2022-10-29T10:27:55.657Z,1.96
2022-10-29T10:33:02.421Z,1.63
2022-10-29T10:38:09.328Z,1.49
2022-10-29T10:43:16.320Z,1.39
2022-10-29T10:48:23.332Z,1.69
2022-10-29T10:53:30.228Z,1.86
2022-10-29T10:58:37.118Z,1.66
2022-10-29T11:03:44.253Z,1.29
2022-10-29T11:08:51.165Z,1.46
2022-10-29T11:13:58.197Z,1.59
2022-10-29T11:19:05.123Z,1.55
2022-10-29T11:24:12.063Z,1.76
2022-10-29T11:29:19.016Z,1.51
2022-10-29T11:34:26.240Z,1.95
2022-10-29T11:39:33.275Z,1.48
2022-10-29T11:44:40.350Z,1.61
2022-10-29T11:49:47.264Z,1.79
2022-10-29T11:54:54.295Z,1.97
2022-10-29T12:00:01.245Z,1.53
2022-10-29T12:05:08.253Z,1.88
2022-10-29T12:10:15.247Z,1.93
2022-10-29T12:15:22.268Z,1.83
2022-10-29T12:20:29.206Z,1.36
2022-10-29T12:25:36.229Z,1.54
2022-10-29T12:30:43.133Z,1.78
2022-10-29T12:35:50.256Z,1.73
2022-10-29T12:40:57.815Z,1.61
2022-10-29T12:46:21.170Z,1.66
2022-10-29T12:51:11.444Z,1.61
2022-10-29T12:56:18.476Z,1.67
2022-10-29T13:01:38.373Z,1.99
2022-10-29T13:06:32.013Z,1.70
2022-10-29T13:11:39.002Z,1.62
2022-10-29T13:16:46.040Z,1.65
2022-10-29T13:21:52.944Z,1.78
2022-10-29T13:27:00.070Z,1.80
2022-10-29T13:32:06.963Z,1.77
2022-10-29T13:37:14.098Z,1.68
2022-10-29T13:42:21.043Z,1.65
2022-10-29T13:47:28.054Z,1.80
2022-10-29T13:52:34.987Z,1.82
2022-10-29T13:57:42.017Z,1.58
2022-10-29T14:02:48.972Z,2.00
2022-10-29T14:07:56.406Z,1.58
2022-10-29T14:13:02.516Z,1.88
2022-10-29T14:18:09.531Z,1.87
2022-10-29T14:23:16.447Z,1.81
2022-10-29T14:28:23.534Z,1.71
2022-10-29T14:33:30.466Z,2.00
2022-10-29T14:38:37.459Z,1.84
2022-10-29T14:43:44.380Z,1.49
2022-10-29T14:48:52.485Z,2.25
2022-10-29T14:53:59.393Z,2.36
2022-10-29T14:59:06.413Z,3.12
2022-10-29T15:04:13.328Z,2.64
2022-10-29T15:09:20.504Z,2.25
2022-10-29T15:19:33.937Z,2.34
2022-10-29T15:24:40.874Z,2.63
2022-10-29T15:29:47.981Z,1.92
2022-10-29T15:34:54.875Z,1.51
2022-10-29T15:40:02.051Z,1.32
2022-10-29T15:45:09.037Z,1.42
2022-10-29T15:50:16.079Z,0.79
2022-10-29T15:55:26.592Z,0.87
2022-10-29T16:00:29.673Z,0.84
2022-10-29T16:05:36.585Z,1.29
2022-10-29T16:10:43.773Z,1.28
2022-10-29T16:15:50.650Z,1.49
2022-10-29T16:20:57.790Z,1.00
2022-10-29T16:26:04.702Z,1.49
2022-10-29T16:31:11.809Z,1.38
2022-10-29T16:36:18.715Z,1.62
2022-10-29T16:41:25.746Z,2.95
2022-10-29T16:46:32.651Z,1.88
2022-10-29T16:51:39.741Z,2.14
2022-10-29T16:56:46.667Z,1.96
2022-10-29T17:01:53.642Z,1.63
2022-10-29T17:07:00.590Z,1.75
2022-10-29T17:12:07.663Z,1.68
2022-10-29T17:17:14.617Z,1.92
2022-10-29T17:22:21.679Z,1.56
2022-10-29T17:27:28.605Z,1.46
2022-10-29T17:32:35.894Z,1.86
2022-10-29T17:37:43.139Z,1.51
2022-10-29T17:42:50.368Z,2.24
2022-10-29T17:48:00.272Z,2.00
2022-10-29T17:53:06.406Z,1.44
2022-10-29T17:58:17.960Z,1.41
2022-10-29T18:03:21.649Z,1.08
2022-10-29T18:08:28.562Z,1.15
2022-10-29T18:13:35.651Z,1.34
2022-10-29T18:18:54.688Z,1.91
2022-10-29T18:23:49.333Z,1.67
2022-10-29T18:28:56.297Z,1.51
2022-10-29T18:34:03.306Z,1.59
2022-10-29T18:39:10.250Z,1.59
2022-10-29T18:44:17.377Z,1.86
2022-10-29T18:49:24.344Z,3.13
2022-10-29T18:54:31.475Z,2.23
2022-10-29T18:59:38.354Z,2.16
2022-10-29T19:04:45.436Z,1.67
2022-10-29T19:09:52.416Z,1.48
2022-10-29T19:14:59.636Z,1.91
2022-10-29T19:20:06.580Z,3.27
2022-10-29T19:25:13.728Z,3.37
2022-10-29T19:30:20.773Z,3.47
2022-10-29T19:35:27.863Z,3.08
2022-10-29T19:40:34.798Z,2.90
2022-10-29T19:45:41.869Z,2.90
2022-10-29T19:50:48.785Z,2.92
2022-10-29T19:55:55.890Z,3.07
2022-10-29T20:01:02.983Z,3.18
2022-10-29T20:06:09.945Z,3.91
2022-10-29T20:11:17.006Z,6.28
2022-10-29T20:16:24.111Z,4.02
2022-10-29T20:21:31.108Z,2.89
2022-10-29T20:26:38.213Z,2.48
2022-10-29T20:31:45.071Z,2.50
2022-10-29T20:36:52.336Z,3.44
2022-10-29T20:41:59.272Z,3.82
2022-10-29T20:47:06.306Z,5.32
2022-10-29T20:52:13.331Z,7.57
2022-10-29T20:57:20.372Z,6.46
2022-10-29T21:02:27.385Z,5.98
2022-10-29T21:07:34.394Z,6.38
2022-10-29T21:12:41.334Z,7.24
2022-10-29T21:17:48.334Z,7.37
2022-10-29T21:22:55.534Z,6.28
2022-10-29T21:28:01.831Z,6.34
2022-10-29T21:33:08.839Z,5.08
2022-10-29T21:43:22.207Z,6.51
2022-10-29T21:48:29.205Z,6.82
2022-10-29T21:53:36.130Z,8.36
2022-10-29T21:58:43.116Z,8.43
2022-10-29T22:03:50.034Z,7.76
2022-10-29T22:08:57.153Z,7.56
2022-10-29T22:14:04.083Z,7.77
2022-10-29T22:19:11.161Z,5.83
2022-10-29T22:24:18.112Z,6.60
2022-10-29T22:29:25.112Z,6.94
2022-10-29T22:34:32.089Z,5.33
2022-10-29T22:39:39.087Z,6.93
2022-10-29T22:44:46.014Z,6.11
2022-10-29T22:49:53.153Z,5.37
2022-10-29T22:55:00.162Z,4.99
2022-10-29T23:00:07.237Z,5.33
2022-10-29T23:05:14.123Z,6.03
2022-10-29T23:10:21.181Z,5.27
2022-10-29T23:15:28.158Z,5.53
2022-10-29T23:20:35.262Z,5.44
2022-10-29T23:25:42.212Z,7.15
2022-10-29T23:30:49.189Z,7.84
2022-10-29T23:35:56.130Z,7.42
2022-10-29T23:41:03.165Z,8.17
2022-10-29T23:46:10.076Z,7.49
2022-10-29T23:51:17.175Z,6.89
2022-10-29T23:56:24.100Z,5.91
